createdAt,value
2018-08-14T00:00:25.621Z,17.30
2018-08-14T00:02:53.905Z,17.30
2018-08-14T00:05:22.248Z,17.20
2018-08-14T00:07:50.696Z,17.20
2018-08-14T00:10:18.969Z,17.10
2018-08-14T00:12:47.323Z,17.10
2018-08-14T00:15:16.293Z,17.10
2018-08-14T00:17:46.284Z,17.00
2018-08-14T00:20:16.039Z,17.00
2018-08-14T00:22:44.341Z,17.00
2018-08-14T00:25:12.803Z,17.10
2018-08-14T00:27:41.200Z,17.00
2018-08-14T00:30:18.899Z,17.00
2018-08-14T00:32:47.479Z,17.00
2018-08-14T00:35:15.795Z,16.90
2018-08-14T00:37:44.209Z,16.90
2018-08-14T00:40:14.933Z,16.80
2018-08-14T00:42:43.319Z,16.70
2018-08-14T00:45:13.779Z,16.70
2018-08-14T00:47:42.094Z,16.70
2018-08-14T00:50:11.288Z,16.70
2018-08-14T00:52:39.604Z,16.70
2018-08-14T00:55:12.329Z,16.60
2018-08-14T00:57:41.199Z,16.60
2018-08-14T01:00:14.516Z,16.50
2018-08-14T01:02:42.787Z,16.50
2018-08-14T01:05:11.656Z,16.40
2018-08-14T01:07:40.085Z,16.30
2018-08-14T01:10:11.021Z,16.30
2018-08-14T01:12:43.630Z,16.30
2018-08-14T01:15:12.481Z,16.30
2018-08-14T01:17:41.019Z,16.20
2018-08-14T01:20:11.205Z,16.20
2018-08-14T01:22:39.643Z,16.20
2018-08-14T01:25:08.300Z,16.20
2018-08-14T01:27:36.673Z,16.20
2018-08-14T01:30:08.311Z,16.10
2018-08-14T01:32:36.616Z,16.10
2018-08-14T01:35:05.286Z,16.10
2018-08-14T01:37:33.722Z,16.10
2018-08-14T01:40:02.024Z,16.10
2018-08-14T01:42:30.383Z,16.00
2018-08-14T01:44:58.677Z,15.90
2018-08-14T01:47:27.019Z,15.80
2018-08-14T01:49:55.423Z,15.70
2018-08-14T01:52:23.768Z,15.60
2018-08-14T01:54:52.046Z,15.60
2018-08-14T01:57:20.507Z,15.60
2018-08-14T01:59:48.801Z,15.60
2018-08-14T02:02:17.297Z,15.60
2018-08-14T02:04:45.785Z,15.50
2018-08-14T02:07:14.238Z,15.50
2018-08-14T02:09:43.403Z,15.30
2018-08-14T02:12:11.847Z,15.20
2018-08-14T02:14:40.699Z,15.20
2018-08-14T02:17:09.547Z,15.20
2018-08-14T02:19:37.859Z,15.10
2018-08-14T02:22:06.769Z,15.10
2018-08-14T02:24:35.075Z,15.10
2018-08-14T02:27:03.408Z,15.10
2018-08-14T02:29:31.769Z,15.10
2018-08-14T02:32:00.086Z,15.10
2018-08-14T02:34:28.420Z,15.20
2018-08-14T02:36:56.829Z,15.20
2018-08-14T02:39:25.127Z,15.10
2018-08-14T02:41:53.468Z,15.20
2018-08-14T02:44:21.886Z,15.10
2018-08-14T02:46:50.417Z,15.20
2018-08-14T02:49:18.815Z,15.10
2018-08-14T02:51:47.099Z,15.20
2018-08-14T02:54:15.616Z,15.20
2018-08-14T02:56:43.976Z,15.20
2018-08-14T02:59:12.443Z,15.20
2018-08-14T03:01:40.760Z,15.30
2018-08-14T03:04:09.181Z,15.30
2018-08-14T03:06:37.478Z,15.20
2018-08-14T03:09:07.937Z,15.20
2018-08-14T03:11:36.269Z,15.30
2018-08-14T03:14:04.575Z,15.30
2018-08-14T03:16:32.942Z,15.30
2018-08-14T03:19:01.367Z,15.30
2018-08-14T03:21:29.651Z,15.30
2018-08-14T03:23:58.338Z,15.30
2018-08-14T03:26:26.786Z,15.30
2018-08-14T03:28:55.067Z,15.30
2018-08-14T03:31:23.509Z,15.30
2018-08-14T03:33:51.792Z,15.30
2018-08-14T03:36:20.452Z,15.30
2018-08-14T03:38:48.822Z,15.20
2018-08-14T03:41:17.330Z,15.20
2018-08-14T03:43:45.643Z,15.20
2018-08-14T03:46:14.246Z,15.20
2018-08-14T03:48:42.573Z,15.10
2018-08-14T03:51:10.856Z,15.10
2018-08-14T03:53:39.165Z,15.00
2018-08-14T03:56:07.724Z,15.00
2018-08-14T03:58:36.041Z,14.90
2018-08-14T04:01:04.341Z,14.90
2018-08-14T04:03:32.731Z,14.90
2018-08-14T04:06:01.029Z,14.90
2018-08-14T04:08:29.318Z,15.00
2018-08-14T04:10:57.626Z,14.90
2018-08-14T04:13:25.937Z,14.90
2018-08-14T04:15:54.219Z,15.00
2018-08-14T04:18:22.542Z,15.10
2018-08-14T04:20:50.871Z,15.20
2018-08-14T04:23:19.385Z,15.10
2018-08-14T04:25:47.705Z,15.20
2018-08-14T04:28:16.122Z,15.30
2018-08-14T04:30:44.405Z,15.40
2018-08-14T04:33:12.716Z,15.40
2018-08-14T04:35:41.007Z,15.50
2018-08-14T04:38:09.275Z,15.70
2018-08-14T04:40:37.578Z,15.90
2018-08-14T04:43:06.000Z,16.00
2018-08-14T04:45:34.264Z,16.20
2018-08-14T04:48:02.607Z,16.30
2018-08-14T04:50:31.191Z,16.40
2018-08-14T04:52:59.474Z,16.40
2018-08-14T04:55:27.793Z,16.50
2018-08-14T04:57:56.078Z,16.50
2018-08-14T05:00:24.655Z,16.40
2018-08-14T05:02:52.966Z,16.40
2018-08-14T05:05:21.433Z,16.40
2018-08-14T05:07:49.812Z,16.40
2018-08-14T05:10:18.664Z,16.40
2018-08-14T05:12:46.992Z,16.40
2018-08-14T05:15:15.644Z,16.40
2018-08-14T05:17:43.961Z,16.50
2018-08-14T05:20:13.137Z,16.60
2018-08-14T05:22:41.714Z,16.50
2018-08-14T05:25:10.720Z,16.50
2018-08-14T05:27:39.242Z,16.50
2018-08-14T05:30:10.310Z,16.50
2018-08-14T05:32:38.612Z,16.50
2018-08-14T05:35:07.862Z,16.60
2018-08-14T05:37:36.209Z,16.60
2018-08-14T05:40:05.362Z,16.70
2018-08-14T05:42:33.662Z,16.70
2018-08-14T05:45:02.104Z,16.80
2018-08-14T05:47:30.424Z,17.00
2018-08-14T05:49:58.723Z,17.10
2018-08-14T05:52:27.214Z,17.00
2018-08-14T05:54:55.521Z,17.00
2018-08-14T05:57:23.985Z,16.90
2018-08-14T05:59:52.278Z,17.00
2018-08-14T06:02:20.793Z,17.10
2018-08-14T06:04:49.154Z,17.30
2018-08-14T06:07:17.661Z,17.40
2018-08-14T06:09:45.930Z,17.70
2018-08-14T06:12:14.273Z,17.80
2018-08-14T06:14:42.587Z,17.80
2018-08-14T06:17:11.169Z,17.90
2018-08-14T06:19:39.459Z,18.10
2018-08-14T06:22:07.767Z,18.40
2018-08-14T06:24:36.050Z,18.50
2018-08-14T06:27:04.373Z,18.80
2018-08-14T06:29:32.701Z,19.00
2018-08-14T06:32:00.998Z,19.50
2018-08-14T06:34:29.365Z,20.60
2018-08-14T06:36:57.630Z,21.60
2018-08-14T06:39:25.924Z,23.20
2018-08-14T06:41:54.323Z,23.30
2018-08-14T06:44:22.882Z,24.40
2018-08-14T06:46:51.231Z,24.60
2018-08-14T06:49:19.582Z,25.60
2018-08-14T06:51:47.902Z,25.90
2018-08-14T06:54:16.191Z,25.50
2018-08-14T06:56:44.713Z,24.70
2018-08-14T06:59:13.052Z,25.20
2018-08-14T07:01:41.360Z,25.40
2018-08-14T07:04:09.890Z,26.10
2018-08-14T07:06:38.191Z,26.10
2018-08-14T07:09:08.227Z,26.50
2018-08-14T07:11:36.547Z,26.60
2018-08-14T07:14:09.207Z,26.90
2018-08-14T07:16:38.702Z,27.10
2018-08-14T07:19:08.323Z,27.20
2018-08-14T07:21:36.879Z,27.70
2018-08-14T07:24:05.349Z,27.50
2018-08-14T07:26:33.671Z,26.40
2018-08-14T07:29:02.094Z,25.90
2018-08-14T07:31:30.647Z,27.40
2018-08-14T07:33:59.090Z,28.50
2018-08-14T07:36:27.664Z,28.80
2018-08-14T07:38:55.967Z,29.10
2018-08-14T07:41:26.533Z,26.90
2018-08-14T07:43:55.890Z,26.00
2018-08-14T07:46:24.513Z,26.20
2018-08-14T07:48:53.267Z,26.90
2018-08-14T07:51:21.670Z,27.60
2018-08-14T07:53:49.981Z,27.80
2018-08-14T07:56:18.310Z,28.10
2018-08-14T07:58:46.588Z,28.60
2018-08-14T08:01:14.964Z,27.90
2018-08-14T08:03:43.499Z,25.90
2018-08-14T08:06:12.148Z,24.80
2018-08-14T08:08:40.425Z,24.50
2018-08-14T08:11:08.781Z,25.00
2018-08-14T08:13:37.073Z,24.50
2018-08-14T08:16:05.401Z,23.60
2018-08-14T08:18:33.760Z,23.30
2018-08-14T08:21:02.044Z,23.20
2018-08-14T08:23:30.415Z,24.00
2018-08-14T08:25:58.824Z,24.40
2018-08-14T08:28:27.295Z,24.70
2018-08-14T08:30:55.672Z,26.30
2018-08-14T08:33:24.210Z,26.80
2018-08-14T08:35:52.530Z,25.60
2018-08-14T08:38:21.073Z,24.10
2018-08-14T08:40:49.436Z,23.60
2018-08-14T08:43:18.015Z,25.40
2018-08-14T08:45:46.322Z,25.20
2018-08-14T08:48:19.069Z,24.30
2018-08-14T08:50:47.613Z,23.60
2018-08-14T08:53:17.819Z,23.10
2018-08-14T08:55:46.334Z,22.70
2018-08-14T08:58:14.789Z,22.80
2018-08-14T09:00:43.080Z,22.70
2018-08-14T09:03:11.394Z,22.60
2018-08-14T09:05:39.783Z,22.30
2018-08-14T09:08:11.510Z,22.00
2018-08-14T09:10:40.430Z,21.80
2018-08-14T09:13:09.995Z,21.50
2018-08-14T09:15:38.684Z,21.30
2018-08-14T09:18:07.003Z,21.00
2018-08-14T09:20:35.320Z,21.00
2018-08-14T09:23:03.649Z,21.20
2018-08-14T09:25:31.965Z,21.60
2018-08-14T09:28:00.286Z,21.80
2018-08-14T09:30:28.849Z,22.20
2018-08-14T09:32:57.179Z,22.20
2018-08-14T09:35:25.589Z,22.00
2018-08-14T09:37:53.959Z,21.90
2018-08-14T09:40:22.364Z,21.70
2018-08-14T09:42:52.379Z,21.50
2018-08-14T09:45:21.299Z,21.40
2018-08-14T09:47:49.652Z,21.30
2018-08-14T09:50:21.557Z,20.90
2018-08-14T09:52:50.045Z,20.80
2018-08-14T09:55:19.148Z,20.70
2018-08-14T09:57:48.444Z,20.80
2018-08-14T10:00:28.877Z,20.80
2018-08-14T10:03:02.677Z,21.00
2018-08-14T10:05:36.418Z,21.40
2018-08-14T10:08:09.286Z,21.60
2018-08-14T10:10:38.124Z,21.90
2018-08-14T10:13:07.621Z,22.00
2018-08-14T10:15:36.212Z,22.00
2018-08-14T10:18:05.069Z,22.10
2018-08-14T10:20:33.447Z,22.20
2018-08-14T10:23:01.805Z,22.20
2018-08-14T10:25:30.569Z,22.10
2018-08-14T10:27:59.104Z,22.10
2018-08-14T10:30:27.580Z,21.90
2018-08-14T10:32:55.927Z,21.50
2018-08-14T10:35:24.282Z,20.80
2018-08-14T10:37:52.618Z,20.40
2018-08-14T10:40:20.940Z,20.00
2018-08-14T10:42:49.371Z,19.80
2018-08-14T10:45:18.796Z,19.70
2018-08-14T10:47:47.773Z,19.90
2018-08-14T10:50:17.727Z,20.10
2018-08-14T10:52:46.778Z,20.30
2018-08-14T10:55:15.483Z,20.50
2018-08-14T10:57:43.870Z,20.80
2018-08-14T11:00:25.081Z,21.10
2018-08-14T11:02:53.480Z,21.40
2018-08-14T11:05:22.366Z,21.20
2018-08-14T11:07:51.306Z,20.90
2018-08-14T11:10:25.917Z,21.00
2018-08-14T11:12:54.833Z,21.40
2018-08-14T11:15:23.467Z,21.60
2018-08-14T11:17:51.762Z,22.10
2018-08-14T11:23:22.704Z,22.50
2018-08-14T11:25:50.999Z,22.00
2018-08-14T11:28:19.300Z,21.70
2018-08-14T11:30:47.637Z,21.60
2018-08-14T11:33:16.606Z,21.60
2018-08-14T11:35:50.371Z,21.30
2018-08-14T11:38:18.666Z,21.50
2018-08-14T11:40:46.943Z,21.40
2018-08-14T11:43:15.252Z,21.50
2018-08-14T11:45:43.564Z,21.40
2018-08-14T11:48:11.859Z,21.40
2018-08-14T11:50:40.185Z,21.40
2018-08-14T11:53:08.636Z,21.40
2018-08-14T11:55:36.992Z,21.40
2018-08-14T11:58:05.631Z,21.40
2018-08-14T12:00:34.011Z,21.40
2018-08-14T12:03:02.317Z,21.40
2018-08-14T12:05:30.708Z,21.50
2018-08-14T12:07:58.972Z,21.40
2018-08-14T12:10:27.419Z,21.40
2018-08-14T12:12:55.842Z,21.50
2018-08-14T12:15:24.176Z,21.50
2018-08-14T12:17:52.470Z,21.50
2018-08-14T12:20:22.085Z,21.30
2018-08-14T12:22:50.467Z,21.30
2018-08-14T12:25:19.602Z,21.30
2018-08-14T12:27:48.513Z,21.50
2018-08-14T12:30:19.009Z,21.80
2018-08-14T12:32:47.934Z,21.80
2018-08-14T12:35:16.285Z,21.90
2018-08-14T12:37:44.616Z,21.50
2018-08-14T12:40:13.705Z,21.40
2018-08-14T12:42:42.001Z,21.40
2018-08-14T12:45:13.771Z,21.50
2018-08-14T12:47:42.260Z,21.50
2018-08-14T12:50:11.633Z,21.70
2018-08-14T12:52:40.012Z,21.80
2018-08-14T12:55:09.242Z,21.60
2018-08-14T12:57:37.873Z,21.30
2018-08-14T13:00:08.218Z,21.10
2018-08-14T13:02:36.682Z,20.90
2018-08-14T13:05:05.235Z,20.90
2018-08-14T13:07:33.674Z,21.00
2018-08-14T13:10:01.974Z,21.10
2018-08-14T13:12:30.697Z,21.10
2018-08-14T13:14:59.097Z,21.10
2018-08-14T13:17:27.409Z,21.20
2018-08-14T13:19:55.740Z,21.30
2018-08-14T13:22:24.086Z,21.20
2018-08-14T13:24:52.412Z,21.30
2018-08-14T13:27:20.717Z,21.30
2018-08-14T13:29:49.001Z,21.20
2018-08-14T13:32:17.321Z,20.90
2018-08-14T13:34:45.640Z,20.90
2018-08-14T13:37:13.940Z,20.90
2018-08-14T13:39:42.249Z,20.90
2018-08-14T13:42:10.515Z,21.00
2018-08-14T13:44:38.929Z,21.10
2018-08-14T13:47:07.541Z,21.30
2018-08-14T13:49:35.958Z,21.50
2018-08-14T13:52:04.421Z,21.50
2018-08-14T13:54:32.840Z,21.40
2018-08-14T13:57:01.156Z,21.40
2018-08-14T13:59:29.555Z,21.40
2018-08-14T14:01:57.878Z,21.60
2018-08-14T14:04:26.243Z,21.50
2018-08-14T14:06:54.564Z,21.40
2018-08-14T14:09:23.345Z,21.40
2018-08-14T14:11:51.646Z,21.30
2018-08-14T14:14:19.962Z,21.20
2018-08-14T14:16:48.221Z,20.90
2018-08-14T14:19:16.541Z,20.80
2018-08-14T14:21:44.863Z,20.90
2018-08-14T14:24:13.155Z,21.10
2018-08-14T14:26:41.507Z,21.20
2018-08-14T14:29:09.810Z,21.40
2018-08-14T14:31:38.195Z,21.60
2018-08-14T14:34:06.520Z,21.40
2018-08-14T14:36:34.987Z,21.30
2018-08-14T14:39:04.917Z,21.20
2018-08-14T14:41:33.273Z,21.10
2018-08-14T14:44:01.573Z,21.00
2018-08-14T14:46:29.882Z,20.80
2018-08-14T14:48:58.331Z,20.50
2018-08-14T14:51:26.614Z,20.30
2018-08-14T14:53:54.909Z,20.00
2018-08-14T14:56:23.221Z,19.80
2018-08-14T14:58:51.525Z,19.50
2018-08-14T15:01:19.817Z,19.20
2018-08-14T15:03:48.102Z,19.10
2018-08-14T15:06:16.408Z,19.10
2018-08-14T15:08:44.776Z,19.30
2018-08-14T15:11:13.074Z,19.40
2018-08-14T15:13:41.424Z,19.50
2018-08-14T15:16:09.781Z,19.60
2018-08-14T15:18:38.179Z,19.60
2018-08-14T15:21:06.547Z,19.70
2018-08-14T15:23:34.928Z,19.80
2018-08-14T15:26:03.287Z,19.80
2018-08-14T15:28:53.094Z,19.70
2018-08-14T15:31:21.433Z,19.70
2018-08-14T15:33:50.350Z,19.70
2018-08-14T15:36:18.669Z,19.90
2018-08-14T15:38:46.990Z,19.90
2018-08-14T15:41:15.406Z,19.80
2018-08-14T15:43:43.782Z,19.80
2018-08-14T15:46:12.126Z,19.90
2018-08-14T15:48:40.512Z,19.80
2018-08-14T15:51:08.889Z,19.80
2018-08-14T15:53:37.229Z,20.00
2018-08-14T15:56:05.609Z,20.00
2018-08-14T15:58:34.006Z,20.00
2018-08-14T16:01:02.395Z,20.00
2018-08-14T16:03:30.696Z,19.90
2018-08-14T16:05:59.056Z,19.80
2018-08-14T16:08:27.353Z,19.70
2018-08-14T16:10:55.668Z,19.70
2018-08-14T16:13:23.986Z,19.70
2018-08-14T16:15:52.675Z,19.90
2018-08-14T16:18:20.987Z,20.00
2018-08-14T16:20:49.572Z,20.10
2018-08-14T16:23:17.901Z,20.10
2018-08-14T16:25:46.424Z,20.30
2018-08-14T16:28:14.783Z,20.40
2018-08-14T16:30:43.089Z,20.30
2018-08-14T16:33:11.421Z,20.30
2018-08-14T16:35:39.921Z,20.20
2018-08-14T16:38:09.086Z,20.20
2018-08-14T16:40:37.671Z,20.10
2018-08-14T16:43:06.005Z,20.10
2018-08-14T16:45:34.457Z,20.10
2018-08-14T16:48:02.765Z,20.20
2018-08-14T16:50:31.080Z,20.20
2018-08-14T16:52:59.473Z,20.30
2018-08-14T16:55:27.818Z,20.40
2018-08-14T16:57:56.322Z,20.60
2018-08-14T17:00:30.156Z,20.70
2018-08-14T17:03:00.782Z,20.60
2018-08-14T17:05:29.129Z,20.50
2018-08-14T17:07:57.556Z,20.40
2018-08-14T17:10:26.840Z,20.20
2018-08-14T17:12:56.124Z,20.10
2018-08-14T17:15:24.994Z,19.90
2018-08-14T17:17:53.326Z,19.80
2018-08-14T17:20:20.725Z,19.70
2018-08-14T17:22:49.018Z,19.60
2018-08-14T17:25:17.355Z,19.40
2018-08-14T17:27:48.413Z,19.40
2018-08-14T17:30:20.183Z,19.30
2018-08-14T17:32:49.197Z,19.20
2018-08-14T17:35:17.606Z,19.20
2018-08-14T17:37:46.170Z,19.20
2018-08-14T17:40:17.215Z,19.20
2018-08-14T17:42:45.834Z,19.10
2018-08-14T17:45:30.917Z,19.20
2018-08-14T17:48:00.514Z,19.20
2018-08-14T17:50:29.262Z,19.20
2018-08-14T17:52:57.692Z,19.20
2018-08-14T17:55:26.562Z,19.20
2018-08-14T17:57:55.039Z,19.20
2018-08-14T18:00:26.573Z,19.20
2018-08-14T18:02:56.390Z,19.10
2018-08-14T18:05:25.361Z,19.10
2018-08-14T18:07:53.704Z,19.10
2018-08-14T18:10:22.990Z,19.10
2018-08-14T18:12:51.302Z,19.10
2018-08-14T18:15:20.409Z,19.10
2018-08-14T18:17:48.984Z,19.10
2018-08-14T18:20:18.712Z,19.00
2018-08-14T18:22:47.130Z,18.90
2018-08-14T18:25:16.752Z,18.90
2018-08-14T18:27:45.749Z,18.90
2018-08-14T18:30:15.365Z,18.80
2018-08-14T18:32:43.803Z,18.70
2018-08-14T18:35:12.395Z,18.60
2018-08-14T18:37:41.071Z,18.50
2018-08-14T18:40:10.827Z,18.40
2018-08-14T18:42:39.110Z,18.40
2018-08-14T18:45:09.143Z,18.30
2018-08-14T18:47:37.451Z,18.20
2018-08-14T18:50:06.643Z,18.30
2018-08-14T18:52:35.191Z,18.30
2018-08-14T18:55:03.553Z,18.30
2018-08-14T18:57:31.909Z,18.30
2018-08-14T19:00:00.217Z,18.30
2018-08-14T19:02:28.749Z,18.30
2018-08-14T19:04:57.058Z,18.30
2018-08-14T19:07:25.374Z,18.40
2018-08-14T19:09:53.671Z,18.40
2018-08-14T19:12:21.959Z,18.40
2018-08-14T19:14:50.265Z,18.40
2018-08-14T19:17:18.531Z,18.30
2018-08-14T19:19:46.799Z,18.30
2018-08-14T19:22:15.099Z,18.30
2018-08-14T19:24:43.463Z,18.20
2018-08-14T19:27:11.729Z,18.20
2018-08-14T19:29:40.051Z,18.10
2018-08-14T19:32:08.388Z,18.00
2018-08-14T19:34:36.653Z,18.00
2018-08-14T19:37:04.967Z,18.10
2018-08-14T19:39:33.234Z,18.10
2018-08-14T19:42:01.572Z,18.10
2018-08-14T19:44:29.874Z,18.10
2018-08-14T19:46:58.216Z,18.10
2018-08-14T19:49:26.445Z,18.20
2018-08-14T19:51:54.735Z,18.20
2018-08-14T19:54:23.045Z,18.30
2018-08-14T19:56:51.358Z,18.20
2018-08-14T19:59:19.682Z,18.20
2018-08-14T20:01:47.980Z,18.20
2018-08-14T20:04:16.278Z,18.20
2018-08-14T20:06:44.869Z,18.20
2018-08-14T20:09:13.245Z,18.20
2018-08-14T20:11:41.716Z,18.20
2018-08-14T20:14:10.118Z,18.20
2018-08-14T20:16:42.125Z,18.20
2018-08-14T20:19:10.693Z,18.10
2018-08-14T20:21:39.484Z,18.20
2018-08-14T20:24:07.901Z,18.10
2018-08-14T20:26:36.347Z,18.10
2018-08-14T20:29:05.038Z,18.10
2018-08-14T20:31:33.320Z,18.10
2018-08-14T20:34:02.603Z,18.10
2018-08-14T20:36:30.884Z,18.10
2018-08-14T20:38:59.210Z,18.00
2018-08-14T20:41:27.529Z,18.00
2018-08-14T20:43:56.176Z,17.90
2018-08-14T20:46:24.456Z,17.90
2018-08-14T20:48:52.779Z,17.80
2018-08-14T20:51:21.055Z,17.80
2018-08-14T20:53:49.361Z,17.70
2018-08-14T20:56:17.721Z,17.60
2018-08-14T20:58:46.259Z,17.50
2018-08-14T21:01:14.544Z,17.40
2018-08-14T21:03:42.989Z,17.30
2018-08-14T21:06:11.323Z,17.30
2018-08-14T21:08:39.610Z,17.20
2018-08-14T21:11:07.929Z,17.10
2018-08-14T21:13:36.461Z,17.00
2018-08-14T21:16:10.241Z,16.90
2018-08-14T21:18:38.549Z,16.80
2018-08-14T21:21:06.846Z,16.70
2018-08-14T21:23:35.172Z,16.60
2018-08-14T21:26:03.538Z,16.50
2018-08-14T21:28:31.794Z,16.40
2018-08-14T21:31:00.153Z,16.40
2018-08-14T21:33:28.422Z,16.30
2018-08-14T21:35:56.706Z,16.30
2018-08-14T21:38:25.023Z,16.20
2018-08-14T21:40:54.387Z,16.10
2018-08-14T21:43:22.743Z,16.00
2018-08-14T21:45:51.212Z,16.00
2018-08-14T21:48:19.477Z,15.90
2018-08-14T21:50:47.883Z,15.90
2018-08-14T21:53:16.195Z,15.90
2018-08-14T21:55:44.624Z,15.80
2018-08-14T21:58:13.061Z,15.80
2018-08-14T22:00:58.489Z,15.80
2018-08-14T22:03:26.828Z,15.70
2018-08-14T22:05:55.242Z,15.70
2018-08-14T22:08:23.540Z,15.60
2018-08-14T22:10:51.983Z,15.60
2018-08-14T22:13:20.335Z,15.50
2018-08-14T22:15:49.118Z,15.40
2018-08-14T22:18:18.285Z,15.40
2018-08-14T22:20:46.836Z,15.40
2018-08-14T22:23:15.210Z,15.40
2018-08-14T22:25:43.571Z,15.40
2018-08-14T22:28:11.902Z,15.40
2018-08-14T22:30:40.298Z,15.40
2018-08-14T22:33:08.668Z,15.50
2018-08-14T22:35:37.797Z,15.50
2018-08-14T22:38:06.230Z,15.50
2018-08-14T22:40:34.748Z,15.50
2018-08-14T22:43:03.016Z,15.50
2018-08-14T22:45:31.321Z,15.40
2018-08-14T22:47:59.616Z,15.40
2018-08-14T22:50:27.918Z,15.40
2018-08-14T22:52:56.358Z,15.30
2018-08-14T22:55:24.613Z,15.20
2018-08-14T22:57:53.732Z,15.10
2018-08-14T23:00:22.480Z,14.90
2018-08-14T23:02:50.996Z,14.70
2018-08-14T23:05:19.452Z,14.60
2018-08-14T23:07:47.785Z,14.50
2018-08-14T23:10:16.167Z,14.50
2018-08-14T23:12:44.620Z,14.50
2018-08-14T23:15:13.672Z,14.50
2018-08-14T23:17:42.422Z,14.50
2018-08-14T23:20:12.509Z,14.60
2018-08-14T23:22:41.349Z,14.70
2018-08-14T23:25:11.071Z,14.70
2018-08-14T23:27:39.406Z,14.60
2018-08-14T23:30:09.753Z,14.70
2018-08-14T23:32:38.097Z,14.60
2018-08-14T23:35:06.743Z,14.60
2018-08-14T23:37:35.345Z,14.70
2018-08-14T23:40:04.170Z,14.70
2018-08-14T23:42:32.431Z,14.70
2018-08-14T23:45:00.762Z,14.70
2018-08-14T23:47:29.038Z,14.60
2018-08-14T23:49:57.500Z,14.50
2018-08-14T23:52:25.820Z,14.30
2018-08-14T23:54:54.275Z,14.20
2018-08-14T23:57:22.545Z,14.10
2018-08-14T23:59:51.016Z,14.00
